createdAt,value
2019-04-01T00:01:07.971Z,102778.11
2019-04-01T00:03:46.741Z,102774.11
2019-04-01T00:06:16.454Z,102775.91
2019-04-01T00:08:46.183Z,102773.64
2019-04-01T00:11:15.939Z,102775.48
2019-04-01T00:13:45.683Z,102775.09
2019-04-01T00:16:15.382Z,102776.03
2019-04-01T00:18:45.131Z,102775.57
2019-04-01T00:21:14.823Z,102776.91
2019-04-01T00:23:44.536Z,102769.32
2019-04-01T00:26:14.228Z,102775.14
2019-04-01T00:28:43.893Z,102779.57
2019-04-01T00:31:13.589Z,102780.90
2019-04-01T00:33:43.290Z,102782.66
2019-04-01T00:36:12.982Z,102778.23
2019-04-01T00:38:42.666Z,102783.14
2019-04-01T00:41:12.383Z,102780.94
2019-04-01T00:43:52.832Z,102784.51
2019-04-01T00:46:22.776Z,102787.16
2019-04-01T00:48:52.595Z,102784.95
2019-04-01T00:51:22.435Z,102779.61
2019-04-01T00:53:52.125Z,102788.05
2019-04-01T00:56:21.943Z,102784.94
2019-04-01T00:58:51.717Z,102785.38
2019-04-01T01:01:21.439Z,102782.27
2019-04-01T01:03:51.122Z,102779.61
2019-04-01T01:06:20.888Z,102788.06
2019-04-01T01:08:50.645Z,102784.95
2019-04-01T01:11:20.342Z,102780.94
2019-04-01T01:13:50.091Z,102778.27
2019-04-01T01:16:19.760Z,102780.95
2019-04-01T01:18:49.445Z,102782.70
2019-04-01T01:21:19.131Z,102783.17
2019-04-01T01:23:48.889Z,102787.62
2019-04-01T01:26:18.627Z,102785.41
2019-04-01T01:28:48.288Z,102783.59
2019-04-01T01:31:17.990Z,102787.59
2019-04-01T01:33:47.671Z,102788.05
2019-04-01T01:36:17.369Z,102792.51
2019-04-01T01:38:47.079Z,102781.84
2019-04-01T01:41:16.749Z,102779.61
2019-04-01T01:43:46.425Z,102772.47
2019-04-01T01:46:16.224Z,102779.15
2019-04-01T01:48:45.963Z,102772.48
2019-04-01T01:51:15.709Z,102779.14
2019-04-01T01:53:48.703Z,102768.02
2019-04-01T01:56:18.455Z,102772.46
2019-04-01T01:58:48.211Z,102766.20
2019-04-01T02:01:18.036Z,102761.31
2019-04-01T02:03:47.816Z,102759.53
2019-04-01T02:06:17.626Z,102761.78
2019-04-01T02:08:47.364Z,102758.18
2019-04-01T02:11:17.325Z,102751.97
2019-04-01T02:13:47.981Z,102759.97
2019-04-01T02:16:18.217Z,102761.30
2019-04-01T02:18:48.044Z,102753.30
2019-04-01T02:21:17.982Z,102755.52
2019-04-01T02:23:47.887Z,102750.64
2019-04-01T02:26:17.694Z,102748.41
2019-04-01T02:28:47.472Z,102756.41
2019-04-01T02:31:17.225Z,102755.01
2019-04-01T02:33:47.037Z,102746.59
2019-04-01T02:36:16.749Z,102750.62
2019-04-01T02:38:46.527Z,102752.86
2019-04-01T02:41:16.280Z,102758.20
2019-04-01T02:43:46.173Z,102752.41
2019-04-01T02:46:15.968Z,102755.88
2019-04-01T02:48:45.995Z,102754.11
2019-04-01T02:51:15.751Z,102753.26
2019-04-01T02:53:46.495Z,102756.41
2019-04-01T02:56:16.347Z,102751.02
2019-04-01T02:58:46.100Z,102754.12
2019-04-01T03:01:15.839Z,102752.75
2019-04-01T03:03:45.691Z,102751.42
2019-04-01T03:06:15.506Z,102753.20
2019-04-01T03:08:45.249Z,102752.78
2019-04-01T03:11:15.169Z,102757.65
2019-04-01T03:13:44.986Z,102753.62
2019-04-01T03:16:14.821Z,102750.08
2019-04-01T03:18:44.565Z,102750.52
2019-04-01T03:21:14.320Z,102746.07
2019-04-01T03:23:44.230Z,102754.98
2019-04-01T03:26:14.005Z,102753.64
2019-04-01T03:28:43.842Z,102748.30
2019-04-01T03:31:13.698Z,102753.17
2019-04-01T03:33:43.542Z,102758.52
2019-04-01T03:36:13.315Z,102765.10
2019-04-01T03:38:43.122Z,102768.67
2019-04-01T03:41:12.989Z,102761.59
2019-04-01T03:43:42.927Z,102758.93
2019-04-01T03:46:12.662Z,102758.05
2019-04-01T03:48:42.636Z,102753.62
2019-04-01T03:51:12.382Z,102762.53
2019-04-01T03:53:42.331Z,102754.54
2019-04-01T03:56:12.076Z,102759.44
2019-04-01T03:58:41.870Z,102759.88
2019-04-01T04:01:11.598Z,102759.81
2019-04-01T04:03:41.557Z,102765.16
2019-04-01T04:06:11.435Z,102770.07
2019-04-01T04:08:41.188Z,102772.29
2019-04-01T04:11:10.953Z,102769.19
2019-04-01T04:13:40.799Z,102765.09
2019-04-01T04:16:10.549Z,102767.33
2019-04-01T04:18:40.445Z,102771.38
2019-04-01T04:21:10.354Z,102767.81
2019-04-01T04:23:40.306Z,102772.26
2019-04-01T04:26:10.125Z,102776.28
2019-04-01T04:28:40.143Z,102775.77
2019-04-01T04:31:10.045Z,102780.66
2019-04-01T04:33:39.885Z,102770.88
2019-04-01T04:36:09.696Z,102783.38
2019-04-01T04:38:39.515Z,102775.83
2019-04-01T04:41:09.324Z,102779.31
2019-04-01T04:43:39.053Z,102780.65
2019-04-01T04:46:08.776Z,102781.92
2019-04-01T04:48:38.538Z,102780.98
2019-04-01T04:51:08.295Z,102778.80
2019-04-01T04:53:39.048Z,102783.75
2019-04-01T04:56:08.813Z,102784.19
2019-04-01T04:58:38.570Z,102782.43
2019-04-01T05:01:08.334Z,102796.13
2019-04-01T05:03:38.213Z,102790.29
2019-04-01T05:06:08.050Z,102785.91
2019-04-01T05:08:38.588Z,102782.41
2019-04-01T05:11:08.384Z,102792.56
2019-04-01T05:13:38.173Z,102789.13
2019-04-01T05:16:07.886Z,102785.58
2019-04-01T05:18:38.168Z,102791.31
2019-04-01T05:21:08.442Z,102790.51
2019-04-01T05:23:38.648Z,102797.66
2019-04-01T05:26:09.686Z,102800.31
2019-04-01T05:28:42.362Z,102801.66
2019-04-01T05:31:14.992Z,102798.55
2019-04-01T05:33:55.288Z,102806.16
2019-04-01T05:36:17.918Z,102813.34
2019-04-01T05:38:47.813Z,102803.52
2019-04-01T05:41:17.718Z,102797.73
2019-04-01T05:43:48.028Z,102798.70
2019-04-01T05:46:17.827Z,102804.95
2019-04-01T05:48:47.820Z,102797.39
2019-04-01T05:51:17.616Z,102799.59
2019-04-01T05:53:49.655Z,102801.83
2019-04-01T05:56:19.579Z,102804.98
2019-04-01T05:58:49.411Z,102810.77
2019-04-01T06:01:23.871Z,102812.55
2019-04-01T06:03:53.690Z,102799.20
2019-04-01T06:06:23.864Z,102809.88
2019-04-01T06:08:53.962Z,102799.83
2019-04-01T06:11:23.832Z,102808.16
2019-04-01T06:13:54.408Z,102803.09
2019-04-01T06:16:24.216Z,102793.89
2019-04-01T06:18:53.971Z,102788.38
2019-04-01T06:21:23.805Z,102785.34
2019-04-01T06:23:53.669Z,102790.61
2019-04-01T06:26:23.389Z,102794.08
2019-04-01T06:28:53.235Z,102785.34
2019-04-01T06:31:23.113Z,102788.52
2019-04-01T06:33:53.094Z,102787.00
2019-04-01T06:36:23.047Z,102785.94
2019-04-01T06:38:52.893Z,102792.22
2019-04-01T06:41:22.708Z,102790.94
2019-04-01T06:43:52.722Z,102791.63
2019-04-01T06:46:22.562Z,102790.23
2019-04-01T06:48:52.439Z,102790.05
2019-04-01T06:51:22.257Z,102791.39
2019-04-01T06:53:54.346Z,102788.20
2019-04-01T06:56:24.186Z,102798.67
2019-04-01T06:58:53.984Z,102802.90
2019-04-01T07:01:23.787Z,102802.03
2019-04-01T07:03:53.592Z,102800.66
2019-04-01T07:06:23.422Z,102810.16
2019-04-01T07:08:53.293Z,102812.55
2019-04-01T07:11:23.145Z,102808.38
2019-04-01T07:13:52.937Z,102810.33
2019-04-01T07:16:22.751Z,102802.22
2019-04-01T07:18:52.555Z,102815.72
2019-04-01T07:21:22.463Z,102815.77
2019-04-01T07:23:52.367Z,102818.38
2019-04-01T07:26:22.176Z,102817.74
2019-04-01T07:28:52.019Z,102823.30
2019-04-01T07:31:21.945Z,102818.44
2019-04-01T07:33:51.834Z,102824.31
2019-04-01T07:36:21.649Z,102829.23
2019-04-01T07:38:51.386Z,102825.28
2019-04-01T07:41:21.206Z,102824.89
2019-04-01T07:43:50.998Z,102816.69
2019-04-01T07:46:20.791Z,102819.95
2019-04-01T07:48:51.078Z,102813.05
2019-04-01T07:51:21.842Z,102817.89
2019-04-01T07:53:51.767Z,102810.54
2019-04-01T07:56:21.625Z,102807.20
2019-04-01T07:58:51.529Z,102808.63
2019-04-01T08:01:21.423Z,102813.53
2019-04-01T08:03:51.399Z,102813.11
2019-04-01T08:06:21.208Z,102808.60
2019-04-01T08:08:51.242Z,102814.77
2019-04-01T08:11:21.167Z,102810.23
2019-04-01T08:13:51.064Z,102805.00
2019-04-01T08:16:20.993Z,102809.94
2019-04-01T08:18:50.917Z,102806.02
2019-04-01T08:21:20.854Z,102797.22
2019-04-01T08:23:50.763Z,102806.67
2019-04-01T08:26:20.675Z,102810.41
2019-04-01T08:28:50.630Z,102804.41
2019-04-01T08:31:20.355Z,102799.84
2019-04-01T08:33:50.482Z,102806.58
2019-04-01T08:36:20.505Z,102808.89
2019-04-01T08:38:50.395Z,102808.31
2019-04-01T08:41:20.274Z,102802.90
2019-04-01T08:43:50.441Z,102787.59
2019-04-01T08:46:20.330Z,102807.62
2019-04-01T08:48:50.144Z,102805.45
2019-04-01T08:51:19.951Z,102801.87
2019-04-01T08:53:50.583Z,102804.41
2019-04-01T08:56:20.443Z,102795.84
2019-04-01T08:58:50.341Z,102801.98
2019-04-01T09:01:34.167Z,102805.23
2019-04-01T09:03:51.773Z,102793.25
2019-04-01T09:06:21.637Z,102784.89
2019-04-01T09:08:53.227Z,102799.52
2019-04-01T09:11:23.065Z,102788.79
2019-04-01T09:13:53.105Z,102788.98
2019-04-01T09:16:23.319Z,102786.91
2019-04-01T09:18:53.161Z,102785.41
2019-04-01T09:21:22.907Z,102787.21
2019-04-01T09:23:52.717Z,102784.39
2019-04-01T09:26:22.617Z,102782.77
2019-04-01T09:28:52.407Z,102785.94
2019-04-01T09:31:22.177Z,102782.17
2019-04-01T09:33:51.921Z,102789.55
2019-04-01T09:36:21.778Z,102780.82
2019-04-01T09:38:51.496Z,102766.59
2019-04-01T09:41:21.251Z,102772.14
2019-04-01T09:43:50.975Z,102766.63
2019-04-01T09:46:20.712Z,102763.75
2019-04-01T09:48:50.516Z,102770.05
2019-04-01T09:51:20.278Z,102763.83
2019-04-01T09:53:51.017Z,102763.13
2019-04-01T09:56:20.888Z,102765.80
2019-04-01T09:58:50.649Z,102757.96
2019-04-01T10:01:20.465Z,102757.80
2019-04-01T10:03:50.376Z,102755.26
2019-04-01T10:06:20.533Z,102755.72
2019-04-01T10:08:53.758Z,102747.05
2019-04-01T10:11:25.492Z,102746.39
2019-04-01T10:13:55.323Z,102750.58
2019-04-01T10:16:26.578Z,102742.89
2019-04-01T10:18:56.715Z,102738.77
2019-04-01T10:21:26.528Z,102736.80
2019-04-01T10:23:56.260Z,102741.61
2019-04-01T10:26:28.810Z,102746.18
2019-04-01T10:28:58.627Z,102746.27
2019-04-01T10:31:28.527Z,102735.94
2019-04-01T10:33:58.406Z,102735.02
2019-04-01T10:36:28.154Z,102728.31
2019-04-01T10:38:57.890Z,102731.73
2019-04-01T10:41:27.703Z,102729.80
2019-04-01T10:43:57.588Z,102719.44
2019-04-01T10:46:27.302Z,102718.58
2019-04-01T10:48:57.067Z,102711.73
2019-04-01T10:51:26.995Z,102701.81
2019-04-01T10:53:58.768Z,102699.48
2019-04-01T10:56:28.540Z,102693.72
2019-04-01T10:58:58.544Z,102700.98
2019-04-01T11:01:28.438Z,102696.41
2019-04-01T11:03:58.346Z,102700.02
2019-04-01T11:06:28.288Z,102693.35
2019-04-01T11:08:58.182Z,102694.39
2019-04-01T11:11:27.876Z,102683.26
2019-04-01T11:13:57.669Z,102679.13
2019-04-01T11:16:27.449Z,102683.27
2019-04-01T11:18:58.206Z,102679.59
2019-04-01T11:21:28.156Z,102677.70
2019-04-01T11:23:57.926Z,102670.47
2019-04-01T11:26:27.763Z,102665.69
2019-04-01T11:28:57.520Z,102659.95
2019-04-01T11:31:27.513Z,102663.94
2019-04-01T11:33:58.006Z,102660.70
2019-04-01T11:36:27.977Z,102659.26
2019-04-01T11:38:57.679Z,102651.39
2019-04-01T11:41:27.397Z,102653.31
2019-04-01T11:43:57.096Z,102653.70
2019-04-01T11:46:26.898Z,102648.78
2019-04-01T11:48:56.621Z,102658.70
2019-04-01T11:51:33.555Z,102642.38
2019-04-01T11:54:10.151Z,102634.34
2019-04-01T11:56:41.290Z,102635.11
2019-04-01T11:59:11.264Z,102623.55
2019-04-01T12:01:40.957Z,102620.70
2019-04-01T12:04:10.664Z,102614.05
2019-04-01T12:06:40.391Z,102610.38
2019-04-01T12:09:10.281Z,102603.27
2019-04-01T12:11:40.101Z,102602.22
2019-04-01T12:14:09.989Z,102594.52
2019-04-01T12:16:39.767Z,102593.27
2019-04-01T12:19:09.772Z,102589.46
2019-04-01T12:21:41.473Z,102587.42
2019-04-01T12:24:10.987Z,102581.58
2019-04-01T12:26:40.875Z,102582.55
2019-04-01T12:29:12.302Z,102583.65
2019-04-01T12:31:42.171Z,102581.55
2019-04-01T12:34:12.087Z,102571.43
2019-04-01T12:36:41.936Z,102575.33
2019-04-01T12:39:11.711Z,102560.27
2019-04-01T12:41:41.558Z,102566.64
2019-04-01T12:44:11.554Z,102555.83
2019-04-01T12:46:41.409Z,102556.91
2019-04-01T12:49:11.159Z,102542.25
2019-04-01T12:51:40.939Z,102545.31
2019-04-01T12:54:10.676Z,102539.19
2019-04-01T12:56:40.373Z,102534.86
2019-04-01T12:59:10.028Z,102525.56
2019-04-01T13:01:39.803Z,102524.40
2019-04-01T13:04:09.483Z,102520.33
2019-04-01T13:06:39.344Z,102519.99
2019-04-01T13:09:09.167Z,102516.53
2019-04-01T13:11:38.947Z,102510.83
2019-04-01T13:14:08.619Z,102501.96
2019-04-01T13:16:38.400Z,102489.22
2019-04-01T13:19:08.094Z,102495.34
2019-04-01T13:21:37.779Z,102488.69
2019-04-01T13:24:07.464Z,102486.71
2019-04-01T13:26:37.147Z,102478.39
2019-04-01T13:29:06.855Z,102474.78
2019-04-01T13:31:36.578Z,102456.81
2019-04-01T13:34:06.329Z,102460.53
2019-04-01T13:36:36.008Z,102460.73
2019-04-01T13:39:07.650Z,102453.13
2019-04-01T13:41:42.589Z,102454.41
2019-04-01T13:44:09.249Z,102447.30
2019-04-01T13:46:39.113Z,102443.42
2019-04-01T13:49:08.796Z,102432.23
2019-04-01T13:51:38.472Z,102429.13
2019-04-01T13:54:10.351Z,102419.34
2019-04-01T13:56:40.001Z,102421.11
2019-04-01T13:59:11.081Z,102417.66
2019-04-01T14:01:41.127Z,102411.71
2019-04-01T14:04:10.917Z,102407.27
2019-04-01T14:06:40.641Z,102412.28
2019-04-01T14:09:10.361Z,102408.75
2019-04-01T14:11:40.006Z,102399.37
2019-04-01T14:14:09.725Z,102391.27
2019-04-01T14:16:41.491Z,102389.88
2019-04-01T14:19:10.908Z,102391.17
2019-04-01T14:21:40.591Z,102393.53
2019-04-01T14:24:10.285Z,102384.27
2019-04-01T14:26:40.941Z,102380.50
2019-04-01T14:29:10.732Z,102367.06
2019-04-01T14:31:40.486Z,102371.86
2019-04-01T14:34:13.704Z,102367.38
2019-04-01T14:36:41.561Z,102365.45
2019-04-01T14:39:11.309Z,102351.44
2019-04-01T14:41:41.074Z,102347.71
2019-04-01T14:44:10.892Z,102336.13
2019-04-01T14:46:40.589Z,102346.70
2019-04-01T14:49:10.278Z,102336.47
2019-04-01T14:51:39.968Z,102333.06
2019-04-01T14:54:09.671Z,102325.21
2019-04-01T14:56:39.409Z,102332.47
2019-04-01T14:59:09.102Z,102325.84
2019-04-01T15:01:38.884Z,102313.61
2019-04-01T15:04:08.697Z,102312.73
2019-04-01T15:06:38.396Z,102306.70
2019-04-01T15:09:08.510Z,102307.11
2019-04-01T15:11:38.262Z,102304.81
2019-04-01T15:14:08.754Z,102299.81
2019-04-01T15:16:38.595Z,102286.23
2019-04-01T15:19:08.431Z,102286.20
2019-04-01T15:21:38.222Z,102282.42
2019-04-01T15:24:07.946Z,102273.47
2019-04-01T15:26:37.738Z,102264.08
2019-04-01T15:29:07.507Z,102264.57
2019-04-01T15:31:37.406Z,102256.28
2019-04-01T15:34:09.133Z,102256.25
2019-04-01T15:36:38.745Z,102251.49
2019-04-01T15:39:10.290Z,102248.06
2019-04-01T15:41:40.024Z,102241.99
2019-04-01T15:44:09.868Z,102235.99
2019-04-01T15:46:39.672Z,102243.48
2019-04-01T15:49:11.387Z,102230.06
2019-04-01T15:51:41.036Z,102233.73
2019-04-01T15:54:10.875Z,102227.46
2019-04-01T15:56:41.946Z,102216.27
2019-04-01T15:59:11.853Z,102207.03
2019-04-01T16:01:41.652Z,102214.30
2019-04-01T16:04:11.485Z,102210.84
2019-04-01T16:06:41.226Z,102212.31
2019-04-01T16:09:11.073Z,102206.41
2019-04-01T16:11:40.815Z,102202.96
2019-04-01T16:14:11.342Z,102204.03
2019-04-01T16:16:41.586Z,102199.10
2019-04-01T16:19:11.435Z,102201.06
2019-04-01T16:21:41.186Z,102187.38
2019-04-01T16:24:11.367Z,102191.06
2019-04-01T16:26:41.320Z,102182.39
2019-04-01T16:29:11.121Z,102190.47
2019-04-01T16:31:40.899Z,102182.33
2019-04-01T16:34:10.689Z,102183.02
2019-04-01T16:36:40.713Z,102180.77
2019-04-01T16:39:10.591Z,102178.72
2019-04-01T16:41:40.428Z,102171.03
2019-04-01T16:44:10.326Z,102167.80
2019-04-01T16:46:41.093Z,102170.56
2019-04-01T16:49:11.209Z,102169.94
2019-04-01T16:51:41.453Z,102165.41
2019-04-01T16:54:18.307Z,102167.58
2019-04-01T16:56:48.078Z,102165.60
2019-04-01T16:59:17.809Z,102164.54
2019-04-01T17:01:47.613Z,102163.66
2019-04-01T17:04:17.512Z,102156.22
2019-04-01T17:06:47.363Z,102159.25
2019-04-01T17:09:17.104Z,102160.87
2019-04-01T17:11:46.923Z,102170.17
2019-04-01T17:14:16.791Z,102152.98
2019-04-01T17:16:46.564Z,102153.49
2019-04-01T17:19:16.378Z,102137.84
2019-04-01T17:21:46.179Z,102138.19
2019-04-01T17:24:15.932Z,102139.00
2019-04-01T17:27:03.075Z,102137.58
2019-04-01T17:29:32.830Z,102141.92
2019-04-01T17:32:02.582Z,102144.37
2019-04-01T17:34:32.620Z,102141.13
2019-04-01T17:37:02.619Z,102139.77
2019-04-01T17:39:34.091Z,102141.81
2019-04-01T17:42:04.662Z,102134.00
2019-04-01T17:44:34.540Z,102143.34
2019-04-01T17:47:06.178Z,102144.81
2019-04-01T17:49:36.180Z,102143.34
2019-04-01T17:52:05.974Z,102140.23
2019-04-01T17:54:39.995Z,102133.91
2019-04-01T17:57:09.524Z,102138.40
2019-04-01T17:59:39.423Z,102132.69
2019-04-01T18:02:13.161Z,102133.19
2019-04-01T18:04:42.963Z,102141.09
2019-04-01T18:07:12.913Z,102136.89
2019-04-01T18:09:42.979Z,102134.98
2019-04-01T18:12:14.919Z,102125.95
2019-04-01T18:14:47.156Z,102135.70
2019-04-01T18:17:20.691Z,102131.56
2019-04-01T18:19:52.525Z,102135.30
2019-04-01T18:22:22.603Z,102133.39
2019-04-01T18:24:56.942Z,102128.55
2019-04-01T18:27:26.821Z,102129.83
2019-04-01T18:29:57.011Z,102124.62
2019-04-01T18:32:28.686Z,102127.97
2019-04-01T18:34:59.829Z,102131.08
2019-04-01T18:37:31.322Z,102127.72
2019-04-01T18:40:01.386Z,102124.20
2019-04-01T18:42:31.642Z,102123.09
2019-04-01T18:45:04.205Z,102118.59
2019-04-01T18:47:38.871Z,102127.40
2019-04-01T18:50:10.009Z,102126.77
2019-04-01T18:52:43.777Z,102125.13
2019-04-01T18:55:15.813Z,102130.42
2019-04-01T18:57:45.866Z,102137.88
2019-04-01T19:00:23.197Z,102129.72
2019-04-01T19:02:55.546Z,102125.10
2019-04-01T19:05:26.458Z,102132.61
2019-04-01T19:07:56.692Z,102127.28
2019-04-01T19:10:26.523Z,102132.70
2019-04-01T19:13:05.606Z,102115.09
2019-04-01T19:15:29.973Z,102113.91
2019-04-01T19:18:00.377Z,102117.80
2019-04-01T19:20:30.645Z,102113.17
2019-04-01T19:23:02.074Z,102111.05
2019-04-01T19:25:33.553Z,102097.36
2019-04-01T19:28:04.565Z,102093.06
2019-04-01T19:30:34.770Z,102098.87
2019-04-01T19:33:06.643Z,102097.59
2019-04-01T19:35:38.735Z,102098.97
2019-04-01T19:38:08.634Z,102098.06
2019-04-01T19:40:39.539Z,102089.21
2019-04-01T19:43:09.388Z,102092.61
2019-04-01T19:45:40.126Z,102080.20
2019-04-01T19:48:10.133Z,102077.89
2019-04-01T19:50:39.941Z,102083.25
2019-04-01T19:53:09.950Z,102077.35
2019-04-01T19:55:44.214Z,102087.42
2019-04-01T19:58:14.363Z,102084.82
2019-04-01T20:00:44.412Z,102081.00
2019-04-01T20:03:14.350Z,102078.02
2019-04-01T20:05:45.228Z,102076.45
2019-04-01T20:08:16.198Z,102074.59
2019-04-01T20:10:46.512Z,102074.61
2019-04-01T20:13:16.474Z,102069.02
2019-04-01T20:15:46.381Z,102066.44
2019-04-01T20:18:16.090Z,102070.41
2019-04-01T20:20:46.020Z,102067.97
2019-04-01T20:23:15.754Z,102063.89
2019-04-01T20:25:48.623Z,102062.20
2019-04-01T20:28:17.197Z,102053.95
2019-04-01T20:30:46.953Z,102050.94
2019-04-01T20:33:19.691Z,102051.78
2019-04-01T20:35:49.945Z,102049.50
2019-04-01T20:38:19.671Z,102043.26
2019-04-01T20:40:49.417Z,102045.23
2019-04-01T20:43:19.512Z,102043.14
2019-04-01T20:45:49.629Z,102042.48
2019-04-01T20:48:19.541Z,102033.16
2019-04-01T20:50:49.391Z,102029.27
2019-04-01T20:53:19.431Z,102027.77
2019-04-01T20:55:50.665Z,102033.44
2019-04-01T20:58:20.895Z,102028.55
2019-04-01T21:00:50.746Z,102029.73
2019-04-01T21:03:20.713Z,102032.02
2019-04-01T21:05:50.583Z,102024.62
2019-04-01T21:08:20.342Z,102024.88
2019-04-01T21:10:50.158Z,102017.68
2019-04-01T21:13:19.961Z,102019.19
2019-04-01T21:15:49.726Z,102016.91
2019-04-01T21:18:20.050Z,102023.44
2019-04-01T21:20:50.283Z,102018.74
2019-04-01T21:23:20.403Z,102021.29
2019-04-01T21:25:50.370Z,102007.52
2019-04-01T21:28:22.793Z,102002.66
2019-04-01T21:30:52.162Z,101998.98
2019-04-01T21:33:22.065Z,101998.62
2019-04-01T21:35:51.884Z,101992.28
2019-04-01T21:38:21.700Z,101986.25
2019-04-01T21:40:52.351Z,101985.65
2019-04-01T21:43:22.195Z,101975.66
2019-04-01T21:45:52.094Z,101975.14
2019-04-01T21:48:21.919Z,101974.00
2019-04-01T21:50:51.691Z,101969.03
2019-04-01T21:53:21.444Z,101966.74
2019-04-01T21:55:51.181Z,101961.03
2019-04-01T21:58:20.988Z,101964.08
2019-04-01T22:00:53.320Z,101948.29
2019-04-01T22:03:23.371Z,101952.81
2019-04-01T22:05:53.175Z,101945.86
2019-04-01T22:08:23.013Z,101945.27
2019-04-01T22:10:53.019Z,101946.97
2019-04-01T22:13:22.723Z,101941.52
2019-04-01T22:15:52.584Z,101934.44
2019-04-01T22:18:22.606Z,101934.96
2019-04-01T22:20:52.550Z,101926.08
2019-04-01T22:23:22.458Z,101923.88
2019-04-01T22:25:52.220Z,101915.83
2019-04-01T22:28:22.214Z,101916.38
2019-04-01T22:30:52.257Z,101915.56
2019-04-01T22:33:21.989Z,101908.92
2019-04-01T22:35:51.859Z,101908.51
2019-04-01T22:38:25.335Z,101903.55
2019-04-01T22:40:53.211Z,101903.27
2019-04-01T22:43:23.044Z,101895.05
2019-04-01T22:45:52.791Z,101892.23
2019-04-01T22:48:22.574Z,101888.53
2019-04-01T22:50:52.320Z,101888.69
2019-04-01T22:53:22.093Z,101883.69
2019-04-01T22:55:51.927Z,101877.57
2019-04-01T22:58:22.153Z,101878.06
2019-04-01T23:00:52.003Z,101874.50
2019-04-01T23:03:21.760Z,101871.24
2019-04-01T23:05:51.629Z,101862.63
2019-04-01T23:08:21.391Z,101869.36
2019-04-01T23:10:51.244Z,101866.44
2019-04-01T23:13:20.982Z,101863.30
2019-04-01T23:15:50.727Z,101859.14
2019-04-01T23:18:20.453Z,101865.87
2019-04-01T23:20:50.284Z,101865.95
2019-04-01T23:23:20.085Z,101855.66
2019-04-01T23:25:49.889Z,101856.66
2019-04-01T23:28:19.722Z,101851.09
2019-04-01T23:30:49.531Z,101851.20
2019-04-01T23:33:19.299Z,101848.58
2019-04-01T23:35:49.105Z,101847.24
2019-04-01T23:38:18.870Z,101842.88
2019-04-01T23:40:48.687Z,101838.94
2019-04-01T23:43:18.434Z,101836.58
2019-04-01T23:45:49.134Z,101829.13
2019-04-01T23:48:19.746Z,101822.02
2019-04-01T23:50:49.539Z,101820.12
2019-04-01T23:53:20.324Z,101821.19
2019-04-01T23:55:50.187Z,101815.09
2019-04-01T23:58:19.925Z,101816.43
